sensor_id;sensor_type;location;lat;lon;timestamp;P1;durP1;ratioP1;P2;durP2;ratioP2
2564;SDS011;1292;48.020;7.822;2023-07-24T05:47:26;5.70;;;4.40;;
2564;SDS011;1292;48.020;7.822;2023-07-24T05:49:53;5.13;;;4.47;;
2564;SDS011;1292;48.020;7.822;2023-07-24T05:52:20;6.10;;;4.60;;
2564;SDS011;1292;48.020;7.822;2023-07-24T05:54:46;6.00;;;4.50;;
2564;SDS011;1292;48.020;7.822;2023-07-24T05:57:13;7.30;;;4.87;;
2564;SDS011;1292;48.020;7.822;2023-07-24T05:59:40;5.07;;;4.57;;
2564;SDS011;1292;48.020;7.822;2023-07-24T06:02:07;5.80;;;5.00;;
2564;SDS011;1292;48.020;7.822;2023-07-24T06:04:36;5.10;;;3.70;;
2564;SDS011;1292;48.020;7.822;2023-07-24T06:07:03;5.63;;;3.50;;
2564;SDS011;1292;48.020;7.822;2023-07-24T06:09:30;5.23;;;4.70;;
2564;SDS011;1292;48.020;7.822;2023-07-24T06:11:57;6.13;;;5.03;;
2564;SDS011;1292;48.020;7.822;2023-07-24T06:14:23;10.43;;;4.43;;
2564;SDS011;1292;48.020;7.822;2023-07-24T06:16:50;7.87;;;4.90;;
2564;SDS011;1292;48.020;7.822;2023-07-24T06:19:17;7.27;;;4.60;;
2564;SDS011;1292;48.020;7.822;2023-07-24T06:21:45;5.73;;;4.90;;
2564;SDS011;1292;48.020;7.822;2023-07-24T06:24:12;5.07;;;3.47;;
2564;SDS011;1292;48.020;7.822;2023-07-24T06:26:39;5.00;;;3.90;;
2564;SDS011;1292;48.020;7.822;2023-07-24T06:29:06;6.10;;;3.87;;
2564;SDS011;1292;48.020;7.822;2023-07-24T06:31:32;8.10;;;4.23;;
2564;SDS011;1292;48.020;7.822;2023-07-24T06:33:59;7.37;;;3.80;;
2564;SDS011;1292;48.020;7.822;2023-07-24T06:36:26;4.43;;;3.40;;
2564;SDS011;1292;48.020;7.822;2023-07-24T06:38:54;4.63;;;3.93;;
2564;SDS011;1292;48.020;7.822;2023-07-24T06:41:21;4.37;;;3.80;;
2564;SDS011;1292;48.020;7.822;2023-07-24T06:43:48;4.87;;;3.70;;
2564;SDS011;1292;48.020;7.822;2023-07-24T06:46:15;5.63;;;3.00;;
2564;SDS011;1292;48.020;7.822;2023-07-24T06:48:42;14.03;;;3.70;;
2564;SDS011;1292;48.020;7.822;2023-07-24T06:51:09;5.00;;;3.27;;
2564;SDS011;1292;48.020;7.822;2023-07-24T06:53:35;6.20;;;3.50;;
2564;SDS011;1292;48.020;7.822;2023-07-24T06:56:04;6.90;;;3.80;;
2564;SDS011;1292;48.020;7.822;2023-07-24T06:58:30;4.53;;;3.63;;
2564;SDS011;1292;48.020;7.822;2023-07-24T07:00:57;8.50;;;3.60;;
2564;SDS011;1292;48.020;7.822;2023-07-24T07:03:24;4.30;;;3.03;;
2564;SDS011;1292;48.020;7.822;2023-07-24T07:05:51;4.43;;;3.90;;
2564;SDS011;1292;48.020;7.822;2023-07-24T07:08:24;4.50;;;3.63;;
2564;SDS011;1292;48.020;7.822;2023-07-24T07:10:54;6.43;;;3.63;;
2564;SDS011;1292;48.020;7.822;2023-07-24T07:13:23;4.87;;;4.30;;
2564;SDS011;1292;48.020;7.822;2023-07-24T07:15:49;4.30;;;3.80;;
2564;SDS011;1292;48.020;7.822;2023-07-24T07:18:16;6.83;;;4.60;;
2564;SDS011;1292;48.020;7.822;2023-07-24T07:20:44;5.03;;;3.57;;
2564;SDS011;1292;48.020;7.822;2023-07-24T07:23:12;4.50;;;4.07;;
2564;SDS011;1292;48.020;7.822;2023-07-24T07:25:39;4.47;;;3.80;;
2564;SDS011;1292;48.020;7.822;2023-07-24T07:28:08;6.37;;;3.30;;
2564;SDS011;1292;48.020;7.822;2023-07-24T07:30:36;5.33;;;3.70;;
2564;SDS011;1292;48.020;7.822;2023-07-24T07:33:03;4.00;;;3.50;;
2564;SDS011;1292;48.020;7.822;2023-07-24T07:35:31;4.63;;;4.23;;
2564;SDS011;1292;48.020;7.822;2023-07-24T07:37:58;5.70;;;4.20;;
2564;SDS011;1292;48.020;7.822;2023-07-24T07:40:25;5.47;;;4.07;;
2564;SDS011;1292;48.020;7.822;2023-07-24T07:42:53;6.63;;;4.50;;
2564;SDS011;1292;48.020;7.822;2023-07-24T07:45:19;7.33;;;4.60;;
2564;SDS011;1292;48.020;7.822;2023-07-24T07:47:48;6.60;;;4.27;;
2564;SDS011;1292;48.020;7.822;2023-07-24T07:50:15;9.50;;;4.40;;
2564;SDS011;1292;48.020;7.822;2023-07-24T07:52:42;5.33;;;4.00;;
2564;SDS011;1292;48.020;7.822;2023-07-24T07:55:09;5.00;;;4.50;;
2564;SDS011;1292;48.020;7.822;2023-07-24T07:57:36;4.53;;;4.13;;
2564;SDS011;1292;48.020;7.822;2023-07-24T08:00:03;5.17;;;4.03;;
2564;SDS011;1292;48.020;7.822;2023-07-24T08:02:32;6.70;;;4.30;;
2564;SDS011;1292;48.020;7.822;2023-07-24T08:05:01;4.63;;;4.23;;
2564;SDS011;1292;48.020;7.822;2023-07-24T08:07:30;6.43;;;3.90;;
2564;SDS011;1292;48.020;7.822;2023-07-24T08:09:57;9.23;;;4.97;;
2564;SDS011;1292;48.020;7.822;2023-07-24T08:12:24;6.30;;;5.40;;
2564;SDS011;1292;48.020;7.822;2023-07-24T08:14:51;7.03;;;4.87;;
2564;SDS011;1292;48.020;7.822;2023-07-24T08:17:18;5.13;;;4.63;;
2564;SDS011;1292;48.020;7.822;2023-07-24T08:19:45;4.93;;;4.27;;
2564;SDS011;1292;48.020;7.822;2023-07-24T08:22:13;5.37;;;4.87;;
2564;SDS011;1292;48.020;7.822;2023-07-24T08:24:40;4.83;;;4.33;;
2564;SDS011;1292;48.020;7.822;2023-07-24T08:27:06;5.67;;;5.10;;
2564;SDS011;1292;48.020;7.822;2023-07-24T08:29:33;9.00;;;5.23;;
2564;SDS011;1292;48.020;7.822;2023-07-24T08:32:01;6.70;;;5.17;;
2564;SDS011;1292;48.020;7.822;2023-07-24T08:34:28;6.30;;;5.30;;
2564;SDS011;1292;48.020;7.822;2023-07-24T08:36:55;7.67;;;4.90;;
2564;SDS011;1292;48.020;7.822;2023-07-24T08:39:23;9.67;;;5.67;;
2564;SDS011;1292;48.020;7.822;2023-07-24T08:41:50;8.80;;;5.10;;
2564;SDS011;1292;48.020;7.822;2023-07-24T08:44:17;5.10;;;4.30;;
2564;SDS011;1292;48.020;7.822;2023-07-24T08:46:44;9.53;;;5.50;;
2564;SDS011;1292;48.020;7.822;2023-07-24T08:49:12;5.90;;;4.87;;
2564;SDS011;1292;48.020;7.822;2023-07-24T08:51:39;9.13;;;5.17;;
2564;SDS011;1292;48.020;7.822;2023-07-24T08:54:06;5.70;;;4.37;;
2564;SDS011;1292;48.020;7.822;2023-07-24T08:56:35;7.20;;;5.40;;
2564;SDS011;1292;48.020;7.822;2023-07-24T08:59:02;7.00;;;4.97;;
2564;SDS011;1292;48.020;7.822;2023-07-24T09:01:29;8.80;;;5.47;;
2564;SDS011;1292;48.020;7.822;2023-07-24T09:03:56;8.47;;;6.00;;
2564;SDS011;1292;48.020;7.822;2023-07-24T09:06:23;5.80;;;5.20;;
2564;SDS011;1292;48.020;7.822;2023-07-24T09:08:53;10.20;;;5.60;;
2564;SDS011;1292;48.020;7.822;2023-07-24T09:11:20;5.83;;;4.77;;
2564;SDS011;1292;48.020;7.822;2023-07-24T09:13:48;8.30;;;5.67;;
2564;SDS011;1292;48.020;7.822;2023-07-24T09:16:22;7.03;;;5.23;;
2564;SDS011;1292;48.020;7.822;2023-07-24T09:18:50;8.30;;;5.00;;
2564;SDS011;1292;48.020;7.822;2023-07-24T09:21:26;11.73;;;5.10;;
2564;SDS011;1292;48.020;7.822;2023-07-24T09:23:54;9.27;;;5.53;;
2564;SDS011;1292;48.020;7.822;2023-07-24T09:26:21;12.47;;;6.03;;
2564;SDS011;1292;48.020;7.822;2023-07-24T09:28:52;7.67;;;5.27;;
2564;SDS011;1292;48.020;7.822;2023-07-24T09:31:20;5.93;;;4.93;;
2564;SDS011;1292;48.020;7.822;2023-07-24T09:33:47;10.60;;;5.50;;
2564;SDS011;1292;48.020;7.822;2023-07-24T09:36:14;8.90;;;5.50;;
2564;SDS011;1292;48.020;7.822;2023-07-24T09:38:41;9.70;;;5.00;;
2564;SDS011;1292;48.020;7.822;2023-07-24T09:41:08;7.20;;;5.63;;
2564;SDS011;1292;48.020;7.822;2023-07-24T09:43:36;9.03;;;5.40;;
2564;SDS011;1292;48.020;7.822;2023-07-24T09:46:05;7.27;;;4.87;;
2564;SDS011;1292;48.020;7.822;2023-07-24T09:48:33;12.00;;;6.13;;
2564;SDS011;1292;48.020;7.822;2023-07-24T09:51:01;10.33;;;4.50;;
2564;SDS011;1292;48.020;7.822;2023-07-24T09:53:32;3.67;;;3.10;;
2564;SDS011;1292;48.020;7.822;2023-07-24T09:56:01;2.10;;;1.90;;
2564;SDS011;1292;48.020;7.822;2023-07-24T09:58:29;5.10;;;2.60;;
2564;SDS011;1292;48.020;7.822;2023-07-24T10:00:58;5.73;;;3.10;;
2564;SDS011;1292;48.020;7.822;2023-07-24T10:03:27;3.30;;;2.87;;
2564;SDS011;1292;48.020;7.822;2023-07-24T10:05:54;4.93;;;2.73;;
2564;SDS011;1292;48.020;7.822;2023-07-24T10:08:22;3.80;;;2.70;;
2564;SDS011;1292;48.020;7.822;2023-07-24T10:10:50;4.00;;;2.13;;
2564;SDS011;1292;48.020;7.822;2023-07-24T10:13:18;3.50;;;1.90;;
2564;SDS011;1292;48.020;7.822;2023-07-24T10:15:46;5.53;;;2.63;;
2564;SDS011;1292;48.020;7.822;2023-07-24T10:18:15;4.77;;;2.30;;
2564;SDS011;1292;48.020;7.822;2023-07-24T10:20:44;3.23;;;2.50;;
2564;SDS011;1292;48.020;7.822;2023-07-24T10:23:15;2.20;;;1.83;;
2564;SDS011;1292;48.020;7.822;2023-07-24T10:25:45;3.47;;;1.70;;
2564;SDS011;1292;48.020;7.822;2023-07-24T10:28:12;4.53;;;2.20;;
2564;SDS011;1292;48.020;7.822;2023-07-24T10:30:41;2.70;;;2.00;;
2564;SDS011;1292;48.020;7.822;2023-07-24T10:33:09;2.87;;;2.40;;
2564;SDS011;1292;48.020;7.822;2023-07-24T10:35:42;4.20;;;3.13;;
2564;SDS011;1292;48.020;7.822;2023-07-24T10:38:12;4.00;;;2.40;;
2564;SDS011;1292;48.020;7.822;2023-07-24T10:40:40;3.27;;;2.57;;
2564;SDS011;1292;48.020;7.822;2023-07-24T10:43:08;3.93;;;3.50;;
2564;SDS011;1292;48.020;7.822;2023-07-24T10:45:40;3.80;;;3.50;;
2564;SDS011;1292;48.020;7.822;2023-07-24T10:48:08;4.17;;;3.40;;
2564;SDS011;1292;48.020;7.822;2023-07-24T10:50:37;3.10;;;2.80;;
2564;SDS011;1292;48.020;7.822;2023-07-24T10:53:06;6.80;;;3.53;;
2564;SDS011;1292;48.020;7.822;2023-07-24T10:55:33;3.60;;;2.93;;
2564;SDS011;1292;48.020;7.822;2023-07-24T10:58:00;3.27;;;2.97;;
2564;SDS011;1292;48.020;7.822;2023-07-24T11:00:27;3.20;;;2.90;;
2564;SDS011;1292;48.020;7.822;2023-07-24T11:02:54;3.63;;;3.03;;
2564;SDS011;1292;48.020;7.822;2023-07-24T11:05:21;4.43;;;3.43;;
2564;SDS011;1292;48.020;7.822;2023-07-24T11:07:48;3.33;;;2.60;;
2564;SDS011;1292;48.020;7.822;2023-07-24T11:10:17;3.07;;;2.40;;
2564;SDS011;1292;48.020;7.822;2023-07-24T11:12:45;4.13;;;2.63;;
2564;SDS011;1292;48.020;7.822;2023-07-24T11:15:12;3.00;;;2.70;;
2564;SDS011;1292;48.020;7.822;2023-07-24T11:17:40;3.60;;;2.50;;
2564;SDS011;1292;48.020;7.822;2023-07-24T11:20:08;4.30;;;3.00;;
2564;SDS011;1292;48.020;7.822;2023-07-24T11:22:41;3.33;;;2.43;;
2564;SDS011;1292;48.020;7.822;2023-07-24T11:25:09;5.20;;;2.27;;
2564;SDS011;1292;48.020;7.822;2023-07-24T11:27:39;5.27;;;2.33;;
2564;SDS011;1292;48.020;7.822;2023-07-24T11:30:08;7.90;;;3.20;;
2564;SDS011;1292;48.020;7.822;2023-07-24T11:32:37;2.30;;;2.10;;
2564;SDS011;1292;48.020;7.822;2023-07-24T11:35:05;2.33;;;2.10;;
2564;SDS011;1292;48.020;7.822;2023-07-24T11:37:33;3.90;;;2.40;;
2564;SDS011;1292;48.020;7.822;2023-07-24T11:40:01;3.93;;;2.50;;
2564;SDS011;1292;48.020;7.822;2023-07-24T11:42:33;3.07;;;2.60;;
2564;SDS011;1292;48.020;7.822;2023-07-24T11:45:05;2.93;;;2.63;;
2564;SDS011;1292;48.020;7.822;2023-07-24T11:47:41;3.27;;;2.70;;
2564;SDS011;1292;48.020;7.822;2023-07-24T11:50:11;3.97;;;2.47;;
2564;SDS011;1292;48.020;7.822;2023-07-24T11:52:38;5.37;;;2.80;;
2564;SDS011;1292;48.020;7.822;2023-07-24T11:55:08;3.63;;;2.37;;
2564;SDS011;1292;48.020;7.822;2023-07-24T11:57:35;2.40;;;2.07;;
2564;SDS011;1292;48.020;7.822;2023-07-24T12:00:05;3.20;;;2.60;;
2564;SDS011;1292;48.020;7.822;2023-07-24T12:02:43;2.80;;;1.90;;
2564;SDS011;1292;48.020;7.822;2023-07-24T12:05:10;3.10;;;2.53;;
2564;SDS011;1292;48.020;7.822;2023-07-24T12:07:37;6.20;;;2.17;;
2564;SDS011;1292;48.020;7.822;2023-07-24T12:10:04;2.50;;;2.30;;
2564;SDS011;1292;48.020;7.822;2023-07-24T12:12:37;3.50;;;2.63;;
2564;SDS011;1292;48.020;7.822;2023-07-24T12:15:06;4.23;;;2.90;;
2564;SDS011;1292;48.020;7.822;2023-07-24T12:17:34;3.37;;;3.00;;
2564;SDS011;1292;48.020;7.822;2023-07-24T12:20:01;2.90;;;2.43;;
2564;SDS011;1292;48.020;7.822;2023-07-24T12:22:29;3.40;;;2.97;;
2564;SDS011;1292;48.020;7.822;2023-07-24T12:24:56;3.50;;;3.20;;
2564;SDS011;1292;48.020;7.822;2023-07-24T12:27:23;2.73;;;2.50;;
2564;SDS011;1292;48.020;7.822;2023-07-24T12:29:49;6.53;;;2.43;;
2564;SDS011;1292;48.020;7.822;2023-07-24T12:32:18;4.20;;;3.33;;
2564;SDS011;1292;48.020;7.822;2023-07-24T12:34:46;3.20;;;2.63;;
2564;SDS011;1292;48.020;7.822;2023-07-24T12:37:13;3.50;;;2.23;;
2564;SDS011;1292;48.020;7.822;2023-07-24T12:39:40;4.17;;;2.67;;
2564;SDS011;1292;48.020;7.822;2023-07-24T12:42:07;3.93;;;2.73;;
2564;SDS011;1292;48.020;7.822;2023-07-24T12:44:34;5.20;;;2.77;;
2564;SDS011;1292;48.020;7.822;2023-07-24T12:47:00;2.87;;;2.37;;
2564;SDS011;1292;48.020;7.822;2023-07-24T12:49:28;4.23;;;2.80;;
2564;SDS011;1292;48.020;7.822;2023-07-24T12:51:55;3.43;;;2.83;;
2564;SDS011;1292;48.020;7.822;2023-07-24T12:54:22;3.73;;;3.03;;
2564;SDS011;1292;48.020;7.822;2023-07-24T12:56:49;3.63;;;2.27;;
2564;SDS011;1292;48.020;7.822;2023-07-24T12:59:16;3.47;;;2.83;;
2564;SDS011;1292;48.020;7.822;2023-07-24T13:01:43;2.87;;;2.43;;
2564;SDS011;1292;48.020;7.822;2023-07-24T13:04:10;3.50;;;3.10;;
2564;SDS011;1292;48.020;7.822;2023-07-24T13:06:39;3.10;;;2.43;;
2564;SDS011;1292;48.020;7.822;2023-07-24T13:09:05;2.83;;;2.60;;
2564;SDS011;1292;48.020;7.822;2023-07-24T13:11:33;3.20;;;2.90;;
2564;SDS011;1292;48.020;7.822;2023-07-24T13:14:00;3.13;;;2.40;;
2564;SDS011;1292;48.020;7.822;2023-07-24T13:16:27;3.13;;;2.83;;
2564;SDS011;1292;48.020;7.822;2023-07-24T13:18:54;2.43;;;2.23;;
2564;SDS011;1292;48.020;7.822;2023-07-24T13:21:21;3.27;;;2.57;;
2564;SDS011;1292;48.020;7.822;2023-07-24T13:23:49;2.67;;;2.07;;
2564;SDS011;1292;48.020;7.822;2023-07-24T13:26:16;5.80;;;3.20;;
2564;SDS011;1292;48.020;7.822;2023-07-24T13:28:43;5.23;;;3.50;;
2564;SDS011;1292;48.020;7.822;2023-07-24T13:31:10;6.00;;;4.23;;
2564;SDS011;1292;48.020;7.822;2023-07-24T13:33:39;9.30;;;4.90;;
2564;SDS011;1292;48.020;7.822;2023-07-24T13:36:05;5.93;;;4.10;;
2564;SDS011;1292;48.020;7.822;2023-07-24T13:38:32;4.23;;;3.80;;
2564;SDS011;1292;48.020;7.822;2023-07-24T13:41:00;6.80;;;3.93;;
2564;SDS011;1292;48.020;7.822;2023-07-24T13:43:27;5.37;;;4.83;;
2564;SDS011;1292;48.020;7.822;2023-07-24T13:45:54;6.73;;;5.13;;
2564;SDS011;1292;48.020;7.822;2023-07-24T13:48:21;6.00;;;4.27;;
2564;SDS011;1292;48.020;7.822;2023-07-24T13:50:48;4.90;;;4.33;;
2564;SDS011;1292;48.020;7.822;2023-07-24T13:53:16;5.67;;;4.07;;
2564;SDS011;1292;48.020;7.822;2023-07-24T13:55:42;5.60;;;4.63;;
2564;SDS011;1292;48.020;7.822;2023-07-24T13:58:11;6.10;;;5.23;;
2564;SDS011;1292;48.020;7.822;2023-07-24T14:00:37;10.40;;;5.43;;
2564;SDS011;1292;48.020;7.822;2023-07-24T14:03:04;4.83;;;4.07;;
2564;SDS011;1292;48.020;7.822;2023-07-24T14:05:31;5.23;;;4.73;;
2564;SDS011;1292;48.020;7.822;2023-07-24T14:07:59;8.23;;;4.20;;
2564;SDS011;1292;48.020;7.822;2023-07-24T14:10:26;7.17;;;4.67;;
2564;SDS011;1292;48.020;7.822;2023-07-24T14:12:53;5.30;;;4.80;;
2564;SDS011;1292;48.020;7.822;2023-07-24T14:15:21;4.87;;;4.37;;
2564;SDS011;1292;48.020;7.822;2023-07-24T14:17:48;6.20;;;4.77;;
2564;SDS011;1292;48.020;7.822;2023-07-24T14:20:15;4.90;;;4.40;;
2564;SDS011;1292;48.020;7.822;2023-07-24T14:22:42;5.37;;;4.50;;
2564;SDS011;1292;48.020;7.822;2023-07-24T14:25:09;6.30;;;4.90;;
2564;SDS011;1292;48.020;7.822;2023-07-24T14:27:36;4.70;;;4.00;;
2564;SDS011;1292;48.020;7.822;2023-07-24T14:30:03;5.60;;;4.70;;
2564;SDS011;1292;48.020;7.822;2023-07-24T14:32:32;5.20;;;4.30;;
2564;SDS011;1292;48.020;7.822;2023-07-24T14:34:59;5.90;;;4.77;;
2564;SDS011;1292;48.020;7.822;2023-07-24T14:37:26;5.10;;;4.60;;
2564;SDS011;1292;48.020;7.822;2023-07-24T14:39:52;5.33;;;3.97;;
2564;SDS011;1292;48.020;7.822;2023-07-24T14:42:19;5.57;;;4.67;;
2564;SDS011;1292;48.020;7.822;2023-07-24T14:44:46;5.47;;;4.90;;
2564;SDS011;1292;48.020;7.822;2023-07-24T14:47:13;4.27;;;3.53;;
2564;SDS011;1292;48.020;7.822;2023-07-24T14:49:41;6.67;;;4.40;;
2564;SDS011;1292;48.020;7.822;2023-07-24T14:52:08;5.80;;;4.33;;
2564;SDS011;1292;48.020;7.822;2023-07-24T14:54:35;5.67;;;4.27;;
2564;SDS011;1292;48.020;7.822;2023-07-24T14:57:02;5.83;;;4.00;;
2564;SDS011;1292;48.020;7.822;2023-07-24T14:59:29;4.37;;;3.97;;
2564;SDS011;1292;48.020;7.822;2023-07-24T15:01:56;5.57;;;4.50;;
2564;SDS011;1292;48.020;7.822;2023-07-24T15:04:23;4.40;;;3.67;;
2564;SDS011;1292;48.020;7.822;2023-07-24T15:06:51;4.97;;;3.40;;
2564;SDS011;1292;48.020;7.822;2023-07-24T15:09:18;4.93;;;4.40;;
2564;SDS011;1292;48.020;7.822;2023-07-24T15:11:44;4.83;;;3.40;;
2564;SDS011;1292;48.020;7.822;2023-07-24T15:14:11;4.10;;;3.30;;
2564;SDS011;1292;48.020;7.822;2023-07-24T15:16:38;4.47;;;3.70;;
2564;SDS011;1292;48.020;7.822;2023-07-24T15:19:05;3.70;;;3.10;;
2564;SDS011;1292;48.020;7.822;2023-07-24T15:21:32;4.57;;;4.10;;
2564;SDS011;1292;48.020;7.822;2023-07-24T15:24:00;4.43;;;3.30;;
2564;SDS011;1292;48.020;7.822;2023-07-24T15:26:27;5.70;;;3.60;;
2564;SDS011;1292;48.020;7.822;2023-07-24T15:28:54;4.20;;;3.40;;
2564;SDS011;1292;48.020;7.822;2023-07-24T15:31:20;6.07;;;3.70;;
2564;SDS011;1292;48.020;7.822;2023-07-24T15:33:47;7.60;;;4.00;;
2564;SDS011;1292;48.020;7.822;2023-07-24T15:36:14;3.10;;;2.80;;
2564;SDS011;1292;48.020;7.822;2023-07-24T15:38:41;6.00;;;3.17;;
2564;SDS011;1292;48.020;7.822;2023-07-24T15:41:09;5.67;;;3.00;;
2564;SDS011;1292;48.020;7.822;2023-07-24T15:43:36;2.87;;;2.53;;
2564;SDS011;1292;48.020;7.822;2023-07-24T15:46:03;5.23;;;3.40;;
2564;SDS011;1292;48.020;7.822;2023-07-24T15:48:29;3.60;;;2.73;;
2564;SDS011;1292;48.020;7.822;2023-07-24T15:50:56;3.63;;;2.93;;
2564;SDS011;1292;48.020;7.822;2023-07-24T15:53:23;4.13;;;3.00;;
2564;SDS011;1292;48.020;7.822;2023-07-24T15:55:50;5.10;;;3.27;;
2564;SDS011;1292;48.020;7.822;2023-07-24T15:58:18;4.07;;;3.43;;
2564;SDS011;1292;48.020;7.822;2023-07-24T16:00:45;4.53;;;3.20;;
2564;SDS011;1292;48.020;7.822;2023-07-24T16:03:11;3.50;;;3.20;;
2564;SDS011;1292;48.020;7.822;2023-07-24T16:05:38;3.07;;;2.83;;
2564;SDS011;1292;48.020;7.822;2023-07-24T16:08:05;3.17;;;2.90;;
2564;SDS011;1292;48.020;7.822;2023-07-24T16:10:32;4.17;;;3.73;;
2564;SDS011;1292;48.020;7.822;2023-07-24T16:12:59;3.00;;;2.70;;
2564;SDS011;1292;48.020;7.822;2023-07-24T16:15:27;4.07;;;2.90;;
2564;SDS011;1292;48.020;7.822;2023-07-24T16:17:54;3.97;;;3.57;;
2564;SDS011;1292;48.020;7.822;2023-07-24T16:20:20;3.83;;;3.10;;
2564;SDS011;1292;48.020;7.822;2023-07-24T16:22:47;3.43;;;3.13;;
2564;SDS011;1292;48.020;7.822;2023-07-24T16:25:14;3.27;;;2.97;;
2564;SDS011;1292;48.020;7.822;2023-07-24T16:27:41;7.40;;;3.20;;
2564;SDS011;1292;48.020;7.822;2023-07-24T16:30:08;3.80;;;3.00;;
2564;SDS011;1292;48.020;7.822;2023-07-24T16:32:37;3.50;;;3.17;;
2564;SDS011;1292;48.020;7.822;2023-07-24T16:35:04;3.03;;;2.77;;
2564;SDS011;1292;48.020;7.822;2023-07-24T16:37:31;3.03;;;2.73;;
2564;SDS011;1292;48.020;7.822;2023-07-24T16:39:58;3.83;;;2.93;;
2564;SDS011;1292;48.020;7.822;2023-07-24T16:42:25;3.77;;;3.30;;
2564;SDS011;1292;48.020;7.822;2023-07-24T16:44:52;3.60;;;3.30;;
2564;SDS011;1292;48.020;7.822;2023-07-24T16:47:19;3.50;;;2.70;;
2564;SDS011;1292;48.020;7.822;2023-07-24T16:49:49;3.17;;;2.87;;
2564;SDS011;1292;48.020;7.822;2023-07-24T16:52:16;3.90;;;2.70;;
2564;SDS011;1292;48.020;7.822;2023-07-24T16:54:43;3.37;;;3.07;;
2564;SDS011;1292;48.020;7.822;2023-07-24T16:57:11;3.10;;;2.80;;
2564;SDS011;1292;48.020;7.822;2023-07-24T16:59:38;3.60;;;3.30;;
2564;SDS011;1292;48.020;7.822;2023-07-24T17:02:05;3.70;;;3.00;;
2564;SDS011;1292;48.020;7.822;2023-07-24T17:04:32;3.13;;;2.83;;
2564;SDS011;1292;48.020;7.822;2023-07-24T17:07:00;6.70;;;3.13;;
2564;SDS011;1292;48.020;7.822;2023-07-24T17:09:27;4.17;;;3.50;;
2564;SDS011;1292;48.020;7.822;2023-07-24T17:11:54;4.13;;;3.20;;
2564;SDS011;1292;48.020;7.822;2023-07-24T17:14:21;4.67;;;4.17;;
2564;SDS011;1292;48.020;7.822;2023-07-24T17:16:47;4.47;;;3.77;;
2564;SDS011;1292;48.020;7.822;2023-07-24T17:19:14;3.97;;;3.57;;
2564;SDS011;1292;48.020;7.822;2023-07-24T17:21:41;3.87;;;3.40;;
2564;SDS011;1292;48.020;7.822;2023-07-24T17:24:09;6.70;;;3.97;;
2564;SDS011;1292;48.020;7.822;2023-07-24T17:26:36;4.70;;;3.60;;
2564;SDS011;1292;48.020;7.822;2023-07-24T17:29:03;4.47;;;4.07;;
2564;SDS011;1292;48.020;7.822;2023-07-24T17:31:31;3.60;;;3.30;;
2564;SDS011;1292;48.020;7.822;2023-07-24T17:33:58;5.83;;;4.07;;
2564;SDS011;1292;48.020;7.822;2023-07-24T17:36:25;4.50;;;3.60;;
2564;SDS011;1292;48.020;7.822;2023-07-24T17:38:52;4.27;;;3.87;;
2564;SDS011;1292;48.020;7.822;2023-07-24T17:41:20;6.47;;;4.17;;
2564;SDS011;1292;48.020;7.822;2023-07-24T17:43:47;4.67;;;4.17;;
2564;SDS011;1292;48.020;7.822;2023-07-24T17:46:13;3.23;;;2.93;;
2564;SDS011;1292;48.020;7.822;2023-07-24T17:48:41;3.30;;;3.10;;
2564;SDS011;1292;48.020;7.822;2023-07-24T17:51:10;5.00;;;3.53;;
2564;SDS011;1292;48.020;7.822;2023-07-24T17:53:37;4.53;;;3.37;;
2564;SDS011;1292;48.020;7.822;2023-07-24T17:56:04;3.60;;;3.30;;
2564;SDS011;1292;48.020;7.822;2023-07-24T17:58:32;4.27;;;2.93;;
2564;SDS011;1292;48.020;7.822;2023-07-24T18:00:59;4.13;;;3.73;;
2564;SDS011;1292;48.020;7.822;2023-07-24T18:03:26;3.67;;;3.37;;
2564;SDS011;1292;48.020;7.822;2023-07-24T18:05:53;3.90;;;3.10;;
2564;SDS011;1292;48.020;7.822;2023-07-24T18:08:21;4.17;;;3.70;;
2564;SDS011;1292;48.020;7.822;2023-07-24T18:10:48;2.90;;;2.70;;
2564;SDS011;1292;48.020;7.822;2023-07-24T18:13:15;4.67;;;3.53;;
2564;SDS011;1292;48.020;7.822;2023-07-24T18:15:43;3.47;;;3.10;;
2564;SDS011;1292;48.020;7.822;2023-07-24T18:18:10;4.47;;;2.30;;
2564;SDS011;1292;48.020;7.822;2023-07-24T18:20:36;2.90;;;2.70;;
2564;SDS011;1292;48.020;7.822;2023-07-24T18:23:03;3.97;;;3.67;;
2564;SDS011;1292;48.020;7.822;2023-07-24T18:25:30;4.17;;;3.40;;
2564;SDS011;1292;48.020;7.822;2023-07-24T18:27:57;3.77;;;3.03;;
2564;SDS011;1292;48.020;7.822;2023-07-24T18:30:24;3.97;;;3.63;;
2564;SDS011;1292;48.020;7.822;2023-07-24T18:32:55;2.73;;;2.53;;
2564;SDS011;1292;48.020;7.822;2023-07-24T18:35:22;2.73;;;2.53;;
2564;SDS011;1292;48.020;7.822;2023-07-24T18:37:48;3.40;;;3.10;;
2564;SDS011;1292;48.020;7.822;2023-07-24T18:40:15;4.13;;;2.90;;
2564;SDS011;1292;48.020;7.822;2023-07-24T18:42:42;3.87;;;3.10;;
2564;SDS011;1292;48.020;7.822;2023-07-24T18:45:09;2.90;;;2.57;;
2564;SDS011;1292;48.020;7.822;2023-07-24T18:47:36;3.40;;;3.10;;
2564;SDS011;1292;48.020;7.822;2023-07-24T18:50:06;3.17;;;2.63;;
2564;SDS011;1292;48.020;7.822;2023-07-24T18:52:33;3.30;;;3.00;;
2564;SDS011;1292;48.020;7.822;2023-07-24T18:54:59;3.40;;;3.10;;
2564;SDS011;1292;48.020;7.822;2023-07-24T18:57:26;4.77;;;3.30;;
2564;SDS011;1292;48.020;7.822;2023-07-24T18:59:53;3.70;;;3.33;;
2564;SDS011;1292;48.020;7.822;2023-07-24T19:02:20;2.83;;;2.63;;
2564;SDS011;1292;48.020;7.822;2023-07-24T19:04:47;3.30;;;3.00;;
2564;SDS011;1292;48.020;7.822;2023-07-24T19:07:15;3.20;;;2.80;;
2564;SDS011;1292;48.020;7.822;2023-07-24T19:09:42;4.27;;;3.10;;
2564;SDS011;1292;48.020;7.822;2023-07-24T19:12:08;3.27;;;2.97;;
2564;SDS011;1292;48.020;7.822;2023-07-24T19:14:36;6.20;;;2.97;;
2564;SDS011;1292;48.020;7.822;2023-07-24T19:17:05;3.40;;;3.10;;
2564;SDS011;1292;48.020;7.822;2023-07-24T19:19:31;4.60;;;3.50;;
2564;SDS011;1292;48.020;7.822;2023-07-24T19:21:58;3.73;;;3.30;;
2564;SDS011;1292;48.020;7.822;2023-07-24T19:24:26;4.43;;;3.20;;
2564;SDS011;1292;48.020;7.822;2023-07-24T19:26:53;3.40;;;3.07;;
2564;SDS011;1292;48.020;7.822;2023-07-24T19:29:20;3.97;;;3.53;;
2564;SDS011;1292;48.020;7.822;2023-07-24T19:31:47;3.50;;;3.20;;
2564;SDS011;1292;48.020;7.822;2023-07-24T19:34:15;3.60;;;3.30;;
2564;SDS011;1292;48.020;7.822;2023-07-24T19:36:42;4.20;;;3.80;;
2564;SDS011;1292;48.020;7.822;2023-07-24T19:39:09;4.20;;;3.57;;
2564;SDS011;1292;48.020;7.822;2023-07-24T19:41:37;3.33;;;3.03;;
2564;SDS011;1292;48.020;7.822;2023-07-24T19:44:04;3.97;;;3.57;;
2564;SDS011;1292;48.020;7.822;2023-07-24T19:46:31;4.03;;;3.63;;
2564;SDS011;1292;48.020;7.822;2023-07-24T19:48:59;6.50;;;4.00;;
2564;SDS011;1292;48.020;7.822;2023-07-24T19:51:26;5.10;;;3.90;;
2564;SDS011;1292;48.020;7.822;2023-07-24T19:53:52;3.50;;;3.20;;
2564;SDS011;1292;48.020;7.822;2023-07-24T19:56:19;4.60;;;4.00;;
2564;SDS011;1292;48.020;7.822;2023-07-24T19:58:47;5.10;;;3.87;;
2564;SDS011;1292;48.020;7.822;2023-07-24T20:01:15;4.80;;;4.40;;
2564;SDS011;1292;48.020;7.822;2023-07-24T20:03:42;5.23;;;4.50;;
2564;SDS011;1292;48.020;7.822;2023-07-24T20:06:09;4.77;;;4.27;;
2564;SDS011;1292;48.020;7.822;2023-07-24T20:08:36;4.50;;;4.10;;
2564;SDS011;1292;48.020;7.822;2023-07-24T20:11:03;8.30;;;4.37;;
2564;SDS011;1292;48.020;7.822;2023-07-24T20:13:31;7.40;;;4.60;;
2564;SDS011;1292;48.020;7.822;2023-07-24T20:16:00;4.30;;;3.90;;
2564;SDS011;1292;48.020;7.822;2023-07-24T20:18:27;4.67;;;4.27;;
2564;SDS011;1292;48.020;7.822;2023-07-24T20:20:54;4.73;;;4.23;;
2564;SDS011;1292;48.020;7.822;2023-07-24T20:23:21;4.43;;;3.87;;
2564;SDS011;1292;48.020;7.822;2023-07-24T20:25:49;4.63;;;3.93;;
2564;SDS011;1292;48.020;7.822;2023-07-24T20:28:16;6.90;;;3.90;;
2564;SDS011;1292;48.020;7.822;2023-07-24T20:30:43;4.20;;;3.80;;
2564;SDS011;1292;48.020;7.822;2023-07-24T20:33:13;5.30;;;4.30;;
2564;SDS011;1292;48.020;7.822;2023-07-24T20:35:40;5.90;;;4.20;;
2564;SDS011;1292;48.020;7.822;2023-07-24T20:38:08;4.83;;;4.37;;
2564;SDS011;1292;48.020;7.822;2023-07-24T20:40:46;6.57;;;3.90;;
2564;SDS011;1292;48.020;7.822;2023-07-24T20:43:12;7.63;;;4.87;;
2564;SDS011;1292;48.020;7.822;2023-07-24T20:45:39;4.50;;;4.10;;
2564;SDS011;1292;48.020;7.822;2023-07-24T20:48:06;4.73;;;4.33;;
2564;SDS011;1292;48.020;7.822;2023-07-24T20:50:35;6.17;;;5.00;;
2564;SDS011;1292;48.020;7.822;2023-07-24T20:53:03;4.97;;;3.57;;
2564;SDS011;1292;48.020;7.822;2023-07-24T20:55:30;4.93;;;4.07;;
2564;SDS011;1292;48.020;7.822;2023-07-24T20:57:56;3.77;;;3.40;;
2564;SDS011;1292;48.020;7.822;2023-07-24T21:00:23;6.90;;;3.80;;
2564;SDS011;1292;48.020;7.822;2023-07-24T21:02:50;4.17;;;3.70;;